Time;durP1;ratioP1;P1;durP2;ratioP2;P2;SDS_P1;SDS_P2;PMS_P1;PMS_P2;Temp;Humidity;BMP_temperature;BMP_pressure;BME280_temperature;BME280_humidity;BME280_pressure;Samples;Min_cycle;Max_cycle;Signal;HPM_P1;HPM_P2
2023/05/04 00:02:20;;;;;;;12.23;9.57;;;5.90;99.90;;;;;;4975201;28;20403;-75
2023/05/04 00:04:46;;;;;;;11.27;10.15;;;5.90;99.90;;;;;;4975365;28;20060;-75
2023/05/04 00:07:14;;;;;;;11.52;10.27;;;5.90;99.90;;;;;;4991495;28;20038;-75
2023/05/04 00:09:39;;;;;;;13.80;10.30;;;5.90;99.90;;;;;;4992450;28;20606;-75
2023/05/04 00:12:07;;;;;;;13.55;10.90;;;5.90;99.90;;;;;;4976984;28;20047;-75
2023/05/04 00:14:37;;;;;;;12.40;10.90;;;5.80;99.90;;;;;;4975452;28;20042;-75
2023/05/04 00:17:06;;;;;;;13.23;10.88;;;5.80;99.90;;;;;;4975315;28;20082;-75
2023/05/04 00:19:33;;;;;;;13.15;10.52;;;5.80;99.90;;;;;;4975087;28;20049;-75
2023/05/04 00:21:59;;;;;;;14.10;11.13;;;5.80;99.90;;;;;;4991254;28;20522;-75
2023/05/04 00:24:25;;;;;;;11.65;10.38;;;5.70;99.90;;;;;;4975643;28;20034;-75
2023/05/04 00:26:51;;;;;;;13.27;10.77;;;5.70;99.90;;;;;;4975418;28;20050;-75
2023/05/04 00:29:19;;;;;;;11.95;10.75;;;5.70;99.90;;;;;;4975283;28;20556;-75
2023/05/04 00:31:45;;;;;;;13.07;11.77;;;5.70;99.90;;;;;;4975032;28;20053;-75
2023/05/04 00:34:11;;;;;;;12.70;11.40;;;5.70;99.90;;;;;;4974991;28;20038;-75
2023/05/04 00:36:37;;;;;;;12.55;10.70;;;5.60;99.90;;;;;;4990958;28;20172;-75
2023/05/04 00:39:02;;;;;;;14.50;11.23;;;5.60;99.90;;;;;;4974560;28;20136;-75
2023/05/04 00:41:31;;;;;;;12.88;11.35;;;5.60;99.90;;;;;;4991525;28;20042;-75
2023/05/04 00:44:01;;;;;;;13.45;12.05;;;5.60;99.90;;;;;;4975518;28;20049;-75
2023/05/04 00:46:27;;;;;;;13.90;10.88;;;5.60;99.90;;;;;;4995022;28;20046;-75
2023/05/04 00:48:58;;;;;;;12.65;11.35;;;5.50;99.90;;;;;;4994635;28;20034;-75
2023/05/04 00:51:24;;;;;;;14.65;11.73;;;5.50;99.90;;;;;;4978651;28;20513;-75
2023/05/04 00:53:50;;;;;;;12.85;11.45;;;5.40;99.90;;;;;;4994877;28;20380;-75
2023/05/04 00:56:16;;;;;;;13.55;12.15;;;5.50;99.90;;;;;;4978828;28;20082;-75
2023/05/04 00:58:42;;;;;;;16.80;12.43;;;5.50;99.90;;;;;;4994842;28;20046;-75
2023/05/04 01:01:08;;;;;;;13.05;11.75;;;5.50;99.90;;;;;;4994793;28;20407;-75
2023/05/04 01:03:33;;;;;;;13.70;11.40;;;5.50;99.90;;;;;;4983696;28;20049;-75
2023/05/04 01:06:22;;;;;;;14.63;12.27;;;5.50;99.90;;;;;;4978363;28;20434;-75
2023/05/04 01:09:15;;;;;;;14.45;12.93;;;5.50;99.90;;;;;;4978666;28;20137;-75
2023/05/04 01:12:02;;;;;;;14.57;12.10;;;5.50;99.90;;;;;;4994903;28;20449;-75
2023/05/04 01:14:29;;;;;;;15.23;12.60;;;5.50;99.90;;;;;;4999407;28;20498;-75
2023/05/04 01:17:00;;;;;;;15.75;12.77;;;5.40;99.90;;;;;;4999882;28;20503;-75
2023/05/04 01:19:28;;;;;;;14.68;12.50;;;5.40;99.90;;;;;;4994468;28;20039;-75
2023/05/04 01:21:55;;;;;;;13.43;12.13;;;5.40;99.90;;;;;;4978263;28;20116;-75
2023/05/04 01:24:22;;;;;;;14.90;12.85;;;5.50;99.90;;;;;;4977963;28;20038;-75
2023/05/04 01:26:53;;;;;;;13.98;12.48;;;5.40;99.90;;;;;;4994491;28;20447;-75
2023/05/04 01:29:48;;;;;;;14.95;13.45;;;5.40;99.90;;;;;;4982756;28;20042;-75
2023/05/04 01:32:14;;;;;;;13.82;12.30;;;5.40;99.90;;;;;;4994239;28;20046;-75
2023/05/04 01:34:42;;;;;;;15.68;12.68;;;5.40;99.90;;;;;;4977810;28;20044;-75
2023/05/04 01:37:08;;;;;;;14.45;12.40;;;5.40;99.90;;;;;;4977843;28;20542;-75
2023/05/04 01:39:34;;;;;;;14.75;12.82;;;5.40;99.90;;;;;;4994386;28;20045;-75
2023/05/04 01:42:01;;;;;;;14.20;12.65;;;5.30;99.90;;;;;;4977877;28;20411;-75
2023/05/04 01:44:26;;;;;;;14.25;12.57;;;5.20;99.90;;;;;;4995960;28;20459;-75
2023/05/04 01:46:52;;;;;;;14.35;12.95;;;5.30;99.90;;;;;;4977748;28;20085;-75
2023/05/04 01:49:17;;;;;;;13.88;12.57;;;5.30;99.90;;;;;;4993275;28;20081;-75
2023/05/04 01:51:45;;;;;;;14.52;13.02;;;5.30;99.90;;;;;;4984737;28;20065;-75
2023/05/04 01:54:11;;;;;;;14.27;12.70;;;5.30;99.90;;;;;;4998558;28;20046;-75
2023/05/04 01:56:37;;;;;;;14.52;13.02;;;5.30;99.90;;;;;;4977772;28;20415;-75
2023/05/04 01:59:02;;;;;;;14.63;13.10;;;5.30;99.90;;;;;;4993998;28;20129;-75
2023/05/04 02:01:28;;;;;;;14.90;13.25;;;5.40;99.90;;;;;;4984287;28;20041;-74
2023/05/04 02:03:53;;;;;;;15.80;13.52;;;5.40;99.90;;;;;;4977297;28;20042;-74
2023/05/04 02:06:19;;;;;;;16.40;13.77;;;5.30;99.90;;;;;;4993774;28;20125;-74
2023/05/04 02:08:45;;;;;;;15.02;13.40;;;5.30;99.90;;;;;;4996290;28;20442;-75
2023/05/04 02:11:13;;;;;;;15.05;13.65;;;5.30;99.90;;;;;;4993553;28;20046;-75
2023/05/04 02:13:39;;;;;;;14.30;12.75;;;5.30;99.90;;;;;;4994731;28;20046;-74
2023/05/04 02:16:07;;;;;;;15.27;13.60;;;5.30;99.90;;;;;;4976975;28;20065;-74
2023/05/04 02:18:33;;;;;;;15.70;13.77;;;5.30;99.90;;;;;;4977007;28;20045;-74
2023/05/04 02:20:58;;;;;;;16.02;13.57;;;5.30;99.90;;;;;;4993264;28;20046;-74
2023/05/04 02:23:24;;;;;;;15.85;14.20;;;5.30;99.90;;;;;;4976858;28;20042;-74
2023/05/04 02:25:51;;;;;;;16.17;14.18;;;5.30;99.90;;;;;;4992364;28;20061;-74
2023/05/04 02:28:19;;;;;;;16.02;14.32;;;5.30;99.90;;;;;;5000139;28;20149;-74
2023/05/04 02:30:45;;;;;;;16.00;14.32;;;5.30;99.90;;;;;;4993046;28;20074;-74
2023/05/04 02:33:10;;;;;;;16.23;13.80;;;5.30;99.90;;;;;;4976912;28;20081;-74
2023/05/04 02:35:36;;;;;;;18.02;14.75;;;5.30;99.90;;;;;;4992920;28;20130;-74
2023/05/04 02:38:02;;;;;;;17.85;14.65;;;5.30;99.90;;;;;;4976926;28;20101;-74
2023/05/04 02:40:27;;;;;;;16.48;14.70;;;5.40;99.90;;;;;;4996682;28;20053;-74
2023/05/04 02:42:53;;;;;;;17.48;14.65;;;5.30;99.90;;;;;;4992558;28;20065;-74
2023/05/04 02:45:19;;;;;;;16.35;14.73;;;5.30;99.90;;;;;;4993091;28;20034;-74
2023/05/04 02:47:44;;;;;;;16.60;14.90;;;5.30;99.90;;;;;;4992987;28;20034;-74
2023/05/04 02:50:10;;;;;;;16.85;15.05;;;5.30;99.90;;;;;;4976819;28;20054;-74
2023/05/04 02:52:36;;;;;;;16.10;14.52;;;5.30;99.90;;;;;;4992826;28;20085;-75
2023/05/04 02:55:02;;;;;;;16.45;14.82;;;5.30;99.90;;;;;;4978644;28;20054;-75
2023/05/04 02:57:28;;;;;;;17.10;15.30;;;5.40;99.90;;;;;;4976513;28;20054;-75
2023/05/04 02:59:53;;;;;;;17.33;15.48;;;5.40;99.90;;;;;;4992600;28;20034;-74
2023/05/04 03:02:21;;;;;;;16.63;14.82;;;5.40;99.90;;;;;;4976948;28;20125;-74
2023/05/04 03:04:47;;;;;;;16.02;14.18;;;5.40;99.90;;;;;;4975734;28;20130;-74
2023/05/04 03:07:13;;;;;;;17.27;14.80;;;5.40;99.90;;;;;;4992089;28;20038;-74
2023/05/04 03:09:38;;;;;;;16.55;14.80;;;5.40;99.90;;;;;;4976741;28;20046;-74
2023/05/04 03:12:07;;;;;;;16.83;15.00;;;5.40;99.90;;;;;;4992605;28;20046;-74
2023/05/04 03:14:33;;;;;;;16.95;15.23;;;5.40;99.90;;;;;;4992257;28;20038;-74
2023/05/04 03:16:58;;;;;;;15.95;14.25;;;5.40;99.90;;;;;;4992500;28;20549;-74
2023/05/04 03:19:24;;;;;;;16.63;14.85;;;5.40;99.90;;;;;;4998405;28;20038;-75
2023/05/04 03:21:50;;;;;;;17.42;15.63;;;5.40;99.90;;;;;;4975910;28;20141;-75
2023/05/04 03:24:16;;;;;;;16.75;15.05;;;5.40;99.90;;;;;;4975921;28;20546;-75
2023/05/04 03:26:46;;;;;;;16.75;14.68;;;5.40;99.90;;;;;;4976098;28;20514;-74
2023/05/04 03:29:12;;;;;;;17.23;15.43;;;5.40;99.90;;;;;;4975794;28;20470;-74
2023/05/04 03:31:40;;;;;;;16.75;14.70;;;5.40;99.90;;;;;;4991993;28;20088;-74
2023/05/04 03:34:06;;;;;;;16.45;14.85;;;5.40;99.90;;;;;;4975823;28;20042;-75
2023/05/04 03:36:31;;;;;;;16.45;14.85;;;5.40;99.90;;;;;;4992275;28;20053;-75
2023/05/04 03:38:57;;;;;;;16.60;14.88;;;5.40;99.90;;;;;;4975764;28;20052;-75
2023/05/04 03:41:22;;;;;;;16.83;15.10;;;5.40;99.90;;;;;;4975997;28;20042;-74
2023/05/04 03:43:51;;;;;;;16.88;15.18;;;5.40;99.90;;;;;;4975988;28;20499;-74
2023/05/04 03:46:16;;;;;;;16.88;15.13;;;5.30;99.90;;;;;;4991829;28;20069;-74
2023/05/04 03:48:42;;;;;;;17.80;15.30;;;5.40;99.90;;;;;;4975622;28;20529;-74
2023/05/04 03:51:10;;;;;;;17.15;15.30;;;5.40;99.90;;;;;;4975938;28;20052;-74
2023/05/04 03:53:35;;;;;;;17.75;15.82;;;5.30;99.90;;;;;;4991679;28;20045;-75
2023/05/04 03:56:02;;;;;;;18.67;16.05;;;5.30;99.90;;;;;;4975524;28;20038;-75
2023/05/04 03:58:27;;;;;;;17.60;15.75;;;5.30;99.90;;;;;;4975300;28;20503;-75
2023/05/04 04:00:56;;;;;;;18.27;16.38;;;5.30;99.90;;;;;;4980360;28;20039;-75
2023/05/04 04:03:21;;;;;;;19.08;17.00;;;5.30;99.90;;;;;;4974937;28;20498;-75
2023/05/04 04:05:47;;;;;;;17.58;15.77;;;5.30;99.90;;;;;;4975341;28;20038;-75
2023/05/04 04:08:13;;;;;;;17.85;16.20;;;5.30;99.90;;;;;;4975206;28;20042;-75
2023/05/04 04:10:39;;;;;;;18.17;15.80;;;5.30;99.90;;;;;;4995268;28;20034;-75
2023/05/04 04:13:05;;;;;;;19.80;17.02;;;5.30;99.90;;;;;;4975079;28;20074;-75
2023/05/04 04:15:31;;;;;;;20.33;16.58;;;5.20;99.90;;;;;;4991552;28;20069;-75
2023/05/04 04:17:56;;;;;;;19.83;16.58;;;5.20;99.90;;;;;;4991486;28;20103;-75
2023/05/04 04:20:22;;;;;;;18.25;16.35;;;5.30;99.90;;;;;;4974940;28;20068;-75
2023/05/04 04:22:48;;;;;;;17.83;15.98;;;5.20;99.90;;;;;;4975013;28;20050;-75
2023/05/04 04:25:14;;;;;;;17.90;15.85;;;5.30;99.90;;;;;;4994371;28;20181;-75
2023/05/04 04:27:40;;;;;;;18.17;15.95;;;5.20;99.90;;;;;;4991044;28;20533;-75
2023/05/04 04:30:06;;;;;;;18.27;15.48;;;5.30;99.90;;;;;;4975056;28;20259;-75
2023/05/04 04:32:32;;;;;;;17.48;15.70;;;5.30;99.90;;;;;;4975136;28;20034;-75
2023/05/04 04:34:58;;;;;;;18.42;16.23;;;5.30;99.90;;;;;;4974928;28;20517;-75
2023/05/04 04:37:24;;;;;;;17.83;15.98;;;5.30;99.90;;;;;;4974327;28;20047;-75
2023/05/04 04:39:50;;;;;;;18.55;16.50;;;5.20;99.90;;;;;;4991131;28;20038;-75
2023/05/04 04:42:16;;;;;;;20.45;16.25;;;5.20;99.90;;;;;;4975155;28;20415;-75
2023/05/04 04:44:41;;;;;;;19.95;16.52;;;5.20;99.90;;;;;;4974985;28;20483;-75
2023/05/04 04:47:10;;;;;;;18.73;16.67;;;5.30;99.90;;;;;;4991257;28;20133;-75
2023/05/04 04:49:36;;;;;;;18.83;16.42;;;5.30;99.90;;;;;;4991361;28;20379;-75
2023/05/04 04:52:02;;;;;;;19.70;16.35;;;5.30;99.90;;;;;;4996614;28;20102;-75
2023/05/04 04:54:28;;;;;;;18.83;16.52;;;5.40;99.90;;;;;;4974831;28;20088;-75
2023/05/04 04:56:54;;;;;;;20.98;16.17;;;5.40;99.90;;;;;;4990879;28;20078;-75
2023/05/04 04:59:23;;;;;;;19.67;17.38;;;5.40;99.90;;;;;;4974812;28;20035;-75
2023/05/04 05:01:49;;;;;;;17.58;15.68;;;5.40;99.90;;;;;;4991226;28;20534;-75
2023/05/04 05:04:14;;;;;;;17.67;15.88;;;5.50;99.90;;;;;;4974818;28;20126;-74
2023/05/04 05:06:40;;;;;;;19.83;16.42;;;5.60;99.90;;;;;;5000090;28;20557;-75
2023/05/04 05:09:06;;;;;;;18.30;16.35;;;5.60;99.90;;;;;;4990857;28;20038;-75
2023/05/04 05:11:31;;;;;;;21.83;16.67;;;5.70;99.90;;;;;;4990821;28;20050;-75
2023/05/04 05:13:58;;;;;;;20.38;16.20;;;5.70;99.90;;;;;;4990442;28;20050;-75
2023/05/04 05:16:24;;;;;;;19.10;16.23;;;5.70;99.90;;;;;;4983492;28;20043;-75
2023/05/04 05:18:50;;;;;;;18.30;15.77;;;5.80;99.90;;;;;;4955662;28;20388;-75
2023/05/04 05:21:16;;;;;;;17.08;15.32;;;5.90;99.90;;;;;;4971323;28;20535;-75
2023/05/04 05:23:41;;;;;;;18.35;16.45;;;5.90;99.90;;;;;;4955170;28;20042;-75
2023/05/04 05:26:07;;;;;;;18.63;16.70;;;6.00;99.90;;;;;;4955225;28;20043;-75
2023/05/04 05:28:33;;;;;;;17.45;15.60;;;6.10;99.90;;;;;;4955071;28;20150;-75
2023/05/04 05:30:58;;;;;;;18.05;15.77;;;6.20;99.90;;;;;;4986738;28;20038;-75
2023/05/04 05:33:27;;;;;;;16.85;15.13;;;6.30;99.90;;;;;;4994341;28;20403;-75
2023/05/04 05:35:52;;;;;;;17.00;14.85;;;6.40;99.90;;;;;;4977892;28;20041;-75
2023/05/04 05:38:18;;;;;;;19.30;15.52;;;6.40;99.90;;;;;;4993999;28;20041;-75
2023/05/04 05:40:44;;;;;;;17.17;15.38;;;6.40;99.90;;;;;;4994616;28;20060;-75
2023/05/04 05:43:09;;;;;;;18.02;15.48;;;6.50;99.90;;;;;;4999626;28;20049;-75
2023/05/04 05:45:38;;;;;;;16.65;14.93;;;6.60;99.90;;;;;;4987974;28;20052;-75
2023/05/04 05:48:04;;;;;;;17.02;14.90;;;6.70;99.90;;;;;;4997287;28;20057;-75
2023/05/04 05:50:35;;;;;;;17.90;15.68;;;6.80;99.90;;;;;;4993433;28;20040;-75
2023/05/04 05:53:01;;;;;;;17.40;15.60;;;6.90;99.90;;;;;;4980962;28;20030;-74
2023/05/04 05:55:26;;;;;;;17.08;15.25;;;6.90;99.90;;;;;;4994747;28;20041;-74
2023/05/04 05:57:52;;;;;;;16.42;14.82;;;7.00;99.90;;;;;;4977584;28;20046;-74
2023/05/04 06:00:18;;;;;;;17.95;14.70;;;7.10;99.90;;;;;;4993124;28;20057;-74
2023/05/04 06:02:44;;;;;;;16.33;14.73;;;7.10;99.90;;;;;;4995125;28;20499;-74
2023/05/04 06:05:10;;;;;;;17.10;15.35;;;7.10;99.90;;;;;;4979848;28;20317;-74
2023/05/04 06:07:36;;;;;;;16.45;14.57;;;7.30;99.90;;;;;;4977778;28;20476;-74
2023/05/04 06:10:01;;;;;;;15.75;14.15;;;7.40;99.90;;;;;;4995016;28;20060;-74
2023/05/04 06:12:27;;;;;;;15.85;14.25;;;7.50;99.90;;;;;;4977950;28;20046;-74
2023/05/04 06:14:52;;;;;;;16.77;14.57;;;7.80;99.90;;;;;;4993798;28;20038;-74
2023/05/04 06:17:21;;;;;;;15.40;13.55;;;8.30;99.90;;;;;;4993281;28;20567;-75
2023/05/04 06:19:46;;;;;;;16.08;14.35;;;8.60;99.90;;;;;;5000348;28;20030;-75
2023/05/04 06:22:15;;;;;;;15.20;13.70;;;8.80;99.90;;;;;;4977557;28;20053;-75
2023/05/04 06:24:43;;;;;;;14.77;13.10;;;8.80;99.90;;;;;;4976856;28;20042;-75
2023/05/04 06:27:08;;;;;;;16.27;13.00;;;9.00;99.90;;;;;;4979088;28;20042;-75
2023/05/04 06:29:37;;;;;;;14.65;13.15;;;9.10;99.90;;;;;;4993512;28;20061;-72
2023/05/04 06:32:05;;;;;;;15.27;13.70;;;9.10;99.90;;;;;;4992647;28;20081;-72
2023/05/04 06:34:30;;;;;;;14.73;13.23;;;9.30;99.90;;;;;;4993171;28;20450;-73
2023/05/04 06:36:56;;;;;;;14.48;12.98;;;9.40;99.90;;;;;;4992981;28;20046;-73
2023/05/04 06:39:21;;;;;;;14.10;12.63;;;9.40;99.90;;;;;;5001293;28;20038;-73
2023/05/04 06:41:47;;;;;;;14.35;12.60;;;9.40;99.90;;;;;;4996542;28;20505;-73
2023/05/04 06:44:13;;;;;;;15.20;13.25;;;9.40;99.90;;;;;;4992687;28;20042;-73
2023/05/04 06:46:38;;;;;;;14.85;13.35;;;9.40;99.90;;;;;;4992876;28;20129;-73
2023/05/04 06:49:04;;;;;;;15.20;13.73;;;9.50;99.90;;;;;;4996732;28;20044;-73
2023/05/04 06:51:30;;;;;;;15.93;13.07;;;9.50;99.90;;;;;;4993590;28;20043;-73
2023/05/04 06:53:56;;;;;;;14.50;13.00;;;9.50;99.90;;;;;;4976302;28;20042;-74
2023/05/04 06:56:25;;;;;;;14.20;12.77;;;9.50;99.90;;;;;;4976427;28;20077;-74
2023/05/04 06:58:50;;;;;;;15.45;12.80;;;9.70;99.90;;;;;;4976596;28;20038;-73
2023/05/04 07:01:16;;;;;;;16.15;13.32;;;9.80;99.90;;;;;;4993024;28;20479;-73
2023/05/04 07:03:41;;;;;;;14.35;12.75;;;9.90;99.90;;;;;;4992816;28;20049;-73
2023/05/04 07:06:08;;;;;;;15.18;12.75;;;9.90;99.90;;;;;;4994673;28;20085;-73
2023/05/04 07:08:33;;;;;;;12.63;11.43;;;10.00;99.90;;;;;;4992273;28;20042;-73
2023/05/04 07:10:59;;;;;;;14.77;12.02;;;10.10;99.90;;;;;;4978024;28;20022;-74
2023/05/04 07:13:25;;;;;;;12.82;11.45;;;10.10;99.90;;;;;;4977248;28;20033;-73
2023/05/04 07:15:51;;;;;;;13.02;11.65;;;10.20;99.90;;;;;;4991624;28;20376;-74
2023/05/04 07:18:16;;;;;;;13.35;12.00;;;10.20;99.90;;;;;;4979124;28;20038;-74
2023/05/04 07:20:42;;;;;;;13.70;12.10;;;10.30;99.90;;;;;;4992119;28;20061;-74
2023/05/04 07:23:08;;;;;;;13.50;12.20;;;10.30;99.90;;;;;;4976353;28;20085;-77
2023/05/04 07:25:33;;;;;;;13.93;12.15;;;10.40;99.90;;;;;;4976390;28;20038;-74
2023/05/04 07:27:59;;;;;;;13.45;12.05;;;10.50;99.90;;;;;;4993634;28;20042;-73
2023/05/04 07:30:25;;;;;;;12.90;11.52;;;10.70;99.90;;;;;;4975741;28;20046;-75
2023/05/04 07:32:51;;;;;;;13.77;11.35;;;10.80;99.90;;;;;;4998718;28;20120;-74
2023/05/04 07:35:24;;;;;;;12.35;11.10;;;11.00;99.90;;;;;;4991950;28;20046;-78
2023/05/04 07:38:00;;;;;;;13.82;11.10;;;11.00;99.90;;;;;;4976019;28;20064;-75
2023/05/04 07:40:26;;;;;;;12.63;11.27;;;11.20;99.90;;;;;;4976890;28;20045;-76
2023/05/04 07:43:01;;;;;;;12.75;11.50;;;11.20;99.90;;;;;;4982688;28;20038;-77
2023/05/04 07:45:36;;;;;;;13.23;11.25;;;11.30;99.90;;;;;;4964764;28;20049;-77
2023/05/04 07:48:16;;;;;;;13.05;11.70;;;11.30;99.90;;;;;;5008968;28;20042;-77
2023/05/04 07:50:49;;;;;;;14.52;11.55;;;11.30;99.90;;;;;;4957547;28;20569;-76
2023/05/04 07:53:32;;;;;;;12.70;11.40;;;11.30;99.90;;;;;;4971979;28;20050;-76
2023/05/04 07:56:10;;;;;;;12.07;10.90;;;11.50;99.90;;;;;;4971434;28;20499;-76
2023/05/04 07:58:41;;;;;;;13.68;11.35;;;11.60;99.90;;;;;;4977186;28;20142;-76
2023/05/04 08:01:07;;;;;;;13.77;11.25;;;11.70;99.90;;;;;;4980285;28;20042;-75
2023/05/04 08:03:45;;;;;;;14.45;11.30;;;11.80;99.90;;;;;;4980977;28;20050;-77
2023/05/04 08:06:13;;;;;;;12.68;11.38;;;11.90;99.90;;;;;;4994165;28;20479;-75
2023/05/04 08:08:43;;;;;;;12.90;10.80;;;12.10;99.90;;;;;;5001625;28;20062;-75
2023/05/04 08:11:15;;;;;;;14.98;10.90;;;12.20;99.90;;;;;;4996501;28;20034;-76
2023/05/04 08:13:41;;;;;;;11.60;10.40;;;12.40;99.90;;;;;;4988242;28;20502;-76
2023/05/04 08:16:10;;;;;;;11.27;10.20;;;12.70;99.90;;;;;;4982102;28;20401;-76
2023/05/04 08:18:38;;;;;;;11.45;9.95;;;13.00;99.90;;;;;;4982285;28;20487;-76
2023/05/04 08:21:07;;;;;;;12.00;10.23;;;13.30;99.90;;;;;;4983240;28;20042;-76
2023/05/04 08:23:33;;;;;;;12.07;10.07;;;13.80;99.60;;;;;;4977738;28;20057;-77
2023/05/04 08:26:05;;;;;;;10.98;9.88;;;14.00;96.00;;;;;;4978977;28;20042;-77
2023/05/04 08:28:44;;;;;;;11.10;9.93;;;14.20;90.60;;;;;;4984171;28;20057;-76
2023/05/04 08:31:20;;;;;;;10.52;9.40;;;14.30;90.60;;;;;;4983039;28;20050;-76
2023/05/04 08:33:52;;;;;;;12.23;10.07;;;14.40;90.00;;;;;;4989987;28;20034;-76
2023/05/04 08:36:18;;;;;;;12.10;10.02;;;14.60;84.80;;;;;;4988078;28;20057;-76
2023/05/04 08:38:44;;;;;;;11.35;9.70;;;14.50;85.50;;;;;;4991542;28;20117;-75
2023/05/04 08:41:10;;;;;;;12.02;9.38;;;14.60;85.30;;;;;;4978388;28;20141;-72
2023/05/04 08:43:36;;;;;;;13.10;9.63;;;14.80;83.80;;;;;;4992559;28;20043;-72
2023/05/04 08:46:02;;;;;;;11.95;9.55;;;15.10;83.80;;;;;;5000846;28;20041;-75
2023/05/04 08:48:34;;;;;;;10.00;8.95;;;15.40;81.00;;;;;;4995786;28;20050;-75
2023/05/04 08:51:05;;;;;;;11.10;9.15;;;15.70;80.00;;;;;;4993193;28;20042;-75
2023/05/04 08:53:34;;;;;;;10.20;8.88;;;15.80;76.10;;;;;;4997970;28;20042;-75
2023/05/04 08:56:15;;;;;;;11.25;9.35;;;15.80;74.00;;;;;;4998006;28;20062;-72
2023/05/04 08:58:51;;;;;;;10.52;9.20;;;15.80;74.50;;;;;;4975661;28;20034;-72
2023/05/04 09:01:18;;;;;;;10.55;8.93;;;16.00;75.40;;;;;;5002222;28;20045;-73
2023/05/04 09:03:45;;;;;;;10.32;9.32;;;16.40;73.50;;;;;;4994371;28;20038;-73
2023/05/04 09:06:12;;;;;;;9.85;8.88;;;16.60;72.30;;;;;;4993203;28;20125;-73
2023/05/04 09:08:37;;;;;;;10.38;9.25;;;16.80;70.90;;;;;;4994710;28;20042;-73
2023/05/04 09:11:03;;;;;;;9.48;8.48;;;17.10;69.70;;;;;;4978633;28;20042;-74
2023/05/04 09:13:30;;;;;;;9.77;8.80;;;17.10;68.60;;;;;;4978309;28;20035;-73
2023/05/04 09:15:57;;;;;;;10.05;8.63;;;17.20;68.10;;;;;;4996506;28;20038;-74
2023/05/04 09:18:44;;;;;;;10.32;8.50;;;17.30;68.20;;;;;;4994871;28;20046;-76
2023/05/04 09:21:15;;;;;;;9.10;7.85;;;17.60;68.90;;;;;;4978434;28;20050;-75
2023/05/04 09:23:51;;;;;;;8.95;8.10;;;18.00;65.40;;;;;;4994934;28;20149;-75
2023/05/04 09:26:29;;;;;;;10.52;7.80;;;18.00;64.80;;;;;;4995309;28;20046;-74
2023/05/04 09:28:56;;;;;;;8.50;7.55;;;18.10;64.60;;;;;;4996559;28;20508;-74
2023/05/04 09:31:25;;;;;;;8.98;7.50;;;18.20;64.90;;;;;;4994519;28;20046;-74
2023/05/04 09:33:52;;;;;;;11.98;7.55;;;18.30;64.60;;;;;;4978246;28;20507;-74
2023/05/04 09:36:19;;;;;;;8.80;7.32;;;18.60;62.50;;;;;;4978198;28;20046;-74
2023/05/04 09:38:48;;;;;;;8.50;7.38;;;18.50;62.50;;;;;;4995942;28;20095;-74
2023/05/04 09:41:33;;;;;;;8.65;7.38;;;18.40;62.10;;;;;;4981774;28;20129;-74
2023/05/04 09:44:16;;;;;;;8.55;7.50;;;18.50;61.40;;;;;;4978343;28;20089;-74
2023/05/04 09:46:41;;;;;;;10.68;7.85;;;18.30;61.80;;;;;;4995767;28;20497;-74
2023/05/04 09:49:27;;;;;;;9.02;7.65;;;18.20;62.10;;;;;;4979664;28;20046;-74
2023/05/04 09:52:05;;;;;;;8.65;7.30;;;18.20;63.60;;;;;;4994825;28;20744;-75
2023/05/04 09:54:44;;;;;;;;;;;;;;;;;;;;;
2023/05/04 09:57:24;;;;;;;8.77;7.83;;;18.10;62.20;;;;;;4994596;28;20089;-75
2023/05/04 09:59:59;;;;;;;11.43;7.50;;;18.10;63.60;;;;;;4994256;28;20042;-74
2023/05/04 10:02:48;;;;;;;8.63;7.30;;;18.10;62.20;;;;;;4977734;28;20038;-74
2023/05/04 10:05:34;;;;;;;7.88;6.85;;;18.10;62.90;;;;;;4995337;28;20043;-74
2023/05/04 10:08:10;;;;;;;8.85;7.15;;;18.20;63.00;;;;;;4987844;28;20063;-74
2023/05/04 10:10:39;;;;;;;9.52;6.40;;;18.40;61.90;;;;;;4994614;28;20050;-74
2023/05/04 10:13:05;;;;;;;7.78;6.70;;;18.30;60.20;;;;;;4978679;28;20053;-74
2023/05/04 10:15:48;;;;;;;9.13;7.47;;;18.20;61.10;;;;;;4978069;28;20064;-74
2023/05/04 10:18:32;;;;;;;8.45;7.57;;;18.20;63.60;;;;;;4993327;28;20065;-74
2023/05/04 10:21:35;;;;;;;8.95;7.30;;;18.40;61.90;;;;;;4994490;28;20038;-74
2023/05/04 10:24:13;;;;;;;;;;;18.50;62.80;;;;;;4988407;28;20042;-74
2023/05/04 10:26:53;;;;;;;12.88;6.65;;;18.60;62.40;;;;;;4993371;28;19929;-74
2023/05/04 10:29:24;;;;;;;8.27;7.40;;;18.70;61.10;;;;;;4993520;28;20038;-74
2023/05/04 10:31:50;;;;;;;8.43;6.95;;;18.60;61.80;;;;;;4993361;28;20103;-74
2023/05/04 10:34:33;;;;;;;8.05;6.93;;;18.50;61.80;;;;;;4998687;28;20104;-73
2023/05/04 10:37:01;;;;;;;7.22;6.50;;;18.40;61.70;;;;;;4988455;28;20042;-73
2023/05/04 10:39:49;;;;;;;9.30;7.10;;;18.40;60.70;;;;;;4994120;28;20042;-75
2023/05/04 10:42:20;;;;;;;8.00;6.65;;;18.30;61.50;;;;;;4977688;28;20042;-75
2023/05/04 10:44:55;;;;;;;9.90;7.13;;;18.40;61.20;;;;;;4975880;28;20041;-73
2023/05/04 10:47:32;;;;;;;8.05;7.20;;;18.50;61.50;;;;;;4997902;28;20431;-73
2023/05/04 10:50:13;;;;;;;9.35;7.22;;;18.90;60.60;;;;;;4976647;28;20073;-74
2023/05/04 10:52:46;;;;;;;8.23;7.40;;;19.00;61.10;;;;;;4992891;28;20043;-74
2023/05/04 10:55:13;;;;;;;8.63;6.18;;;19.30;59.20;;;;;;4992784;28;20038;-74
2023/05/04 10:57:55;;;;;;;7.88;6.60;;;19.30;59.60;;;;;;4991849;28;20061;-74
2023/05/04 11:00:23;;;;;;;8.30;6.72;;;19.60;60.50;;;;;;4993043;28;20426;-74
2023/05/04 11:02:49;;;;;;;9.18;6.50;;;19.80;59.10;;;;;;4992795;28;20454;-74
2023/05/04 11:05:18;;;;;;;7.30;5.82;;;19.90;58.80;;;;;;4992770;28;20117;-74
2023/05/04 11:07:45;;;;;;;9.38;6.53;;;20.30;56.40;;;;;;4992593;28;20057;-74
2023/05/04 11:10:25;;;;;;;6.97;6.28;;;20.30;55.70;;;;;;4982209;28;20046;-74
2023/05/04 11:12:51;;;;;;;7.03;6.32;;;20.40;55.80;;;;;;4998214;28;20452;-74
2023/05/04 11:15:17;;;;;;;9.10;6.57;;;20.30;56.10;;;;;;4993610;28;20057;-74
2023/05/04 11:17:51;;;;;;;8.35;6.60;;;20.40;55.90;;;;;;4992305;28;20093;-74
2023/05/04 11:20:26;;;;;;;7.90;7.10;;;20.70;55.60;;;;;;4992341;28;20042;-74
2023/05/04 11:22:53;;;;;;;8.50;6.43;;;20.80;55.00;;;;;;4975112;28;20046;-74
2023/05/04 11:25:28;;;;;;;9.27;7.13;;;20.60;55.20;;;;;;4993483;28;20495;-74
2023/05/04 11:27:53;;;;;;;6.57;5.82;;;20.50;55.10;;;;;;4975763;28;20128;-74
2023/05/04 11:30:20;;;;;;;7.15;6.43;;;20.20;55.40;;;;;;4991896;28;20543;-74
2023/05/04 11:32:46;;;;;;;8.48;6.50;;;20.20;56.70;;;;;;4991778;28;20042;-74
2023/05/04 11:35:24;;;;;;;9.13;6.07;;;20.30;55.90;;;;;;4992021;28;20053;-74
2023/05/04 11:37:49;;;;;;;8.32;6.05;;;20.30;57.80;;;;;;4994870;28;20078;-74
2023/05/04 11:40:21;;;;;;;8.20;5.97;;;20.60;55.00;;;;;;4992372;28;20074;-74
2023/05/04 11:42:50;;;;;;;7.50;6.00;;;20.60;54.70;;;;;;4992839;28;20042;-74
2023/05/04 11:45:23;;;;;;;7.72;5.97;;;20.60;56.10;;;;;;4975720;28;20038;-74
2023/05/04 11:47:50;;;;;;;8.55;6.32;;;20.80;55.20;;;;;;4995593;28;20050;-74
2023/05/04 11:50:18;;;;;;;7.50;6.07;;;20.80;56.80;;;;;;4975864;28;20073;-74
2023/05/04 11:52:44;;;;;;;6.57;5.88;;;21.20;54.90;;;;;;4991556;28;20053;-74
2023/05/04 11:55:11;;;;;;;6.95;5.30;;;21.10;54.00;;;;;;4975088;28;20491;-74
2023/05/04 11:57:37;;;;;;;6.03;5.43;;;20.90;54.20;;;;;;4974459;28;20146;-74
2023/05/04 12:00:05;;;;;;;6.30;5.45;;;20.70;54.40;;;;;;4991457;28;20117;-74
2023/05/04 12:02:31;;;;;;;9.18;5.07;;;20.40;54.00;;;;;;4993100;28;20041;-73
2023/05/04 12:04:57;;;;;;;7.38;5.43;;;20.30;54.80;;;;;;4975198;28;20031;-74
2023/05/04 12:07:23;;;;;;;7.40;5.05;;;20.30;55.20;;;;;;4991661;28;20046;-74
2023/05/04 12:09:49;;;;;;;8.05;5.80;;;20.50;56.50;;;;;;4980932;28;20414;-74
2023/05/04 12:12:17;;;;;;;7.53;5.38;;;20.90;54.70;;;;;;4992677;28;20076;-75
2023/05/04 12:14:47;;;;;;;7.20;4.60;;;20.90;55.20;;;;;;4975278;28;20065;-75
2023/05/04 12:17:19;;;;;;;5.72;5.10;;;21.10;55.80;;;;;;4991658;28;20073;-74
2023/05/04 12:19:50;;;;;;;7.18;5.40;;;21.40;54.00;;;;;;4991297;28;20048;-74
2023/05/04 12:22:16;;;;;;;8.88;5.38;;;21.30;53.20;;;;;;4975205;28;20034;-75
2023/05/04 12:24:42;;;;;;;5.30;4.80;;;21.00;53.50;;;;;;4996026;28;20037;-74
2023/05/04 12:27:12;;;;;;;6.70;5.60;;;20.80;52.60;;;;;;4991256;28;20046;-74
2023/05/04 12:29:38;;;;;;;7.80;5.40;;;20.70;53.00;;;;;;4991231;28;20050;-74
2023/05/04 12:32:04;;;;;;;8.75;5.55;;;20.60;53.90;;;;;;4996787;28;20046;-74
2023/05/04 12:34:33;;;;;;;8.02;5.07;;;20.70;55.00;;;;;;4990417;28;20451;-74
2023/05/04 12:36:58;;;;;;;6.82;5.25;;;20.90;54.50;;;;;;4990265;28;20051;-74
2023/05/04 12:39:24;;;;;;;7.15;5.30;;;21.10;53.50;;;;;;4991048;28;20038;-74
2023/05/04 12:41:49;;;;;;;8.90;4.85;;;21.30;53.10;;;;;;4994534;28;20051;-74
2023/05/04 12:44:15;;;;;;;10.25;5.57;;;21.60;54.40;;;;;;4999400;28;20433;-74
2023/05/04 12:46:42;;;;;;;7.10;5.47;;;21.90;52.90;;;;;;4995217;28;20129;-74
2023/05/04 12:49:09;;;;;;;6.88;5.78;;;21.90;52.00;;;;;;4995066;28;20133;-75